Time;durP1;ratioP1;P1;durP2;ratioP2;P2;SDS_P1;SDS_P2;PMS_P1;PMS_P2;Temp;Humidity;BMP_temperature;BMP_pressure;BME280_temperature;BME280_humidity;BME280_pressure;Samples;Min_cycle;Max_cycle;Signal;HPM_P1;HPM_P2
2023/01/20 00:01:41;;;;;;;7.25;6.55;;;22.20;72.60;;;;;;6221094;28;89138;-73
2023/01/20 00:04:43;;;;;;;7.30;6.60;;;22.20;72.60;;;;;;6226920;28;90108;-73
2023/01/20 00:07:45;;;;;;;7.30;6.60;;;22.20;72.70;;;;;;6228051;28;89061;-73
2023/01/20 00:10:49;;;;;;;7.35;6.65;;;22.20;72.70;;;;;;6211884;28;88984;-71
2023/01/20 00:13:54;;;;;;;7.47;6.78;;;22.20;72.70;;;;;;6232650;28;89117;-73
2023/01/20 00:16:58;;;;;;;7.30;6.60;;;22.20;72.80;;;;;;6232210;28;88303;-72
2023/01/20 00:20:00;;;;;;;8.02;7.22;;;22.20;72.80;;;;;;6229996;28;89200;-72
2023/01/20 00:23:02;;;;;;;7.50;6.80;;;22.20;72.70;;;;;;6222257;28;89080;-72
2023/01/20 00:26:08;;;;;;;7.03;6.32;;;22.10;72.70;;;;;;6221411;28;88326;-72
2023/01/20 00:29:10;;;;;;;7.05;6.35;;;22.10;72.70;;;;;;6231084;28;89448;-72
2023/01/20 00:32:12;;;;;;;6.88;6.28;;;22.10;72.70;;;;;;6229818;28;89049;-73
2023/01/20 00:35:15;;;;;;;6.95;6.25;;;22.10;72.70;;;;;;6218730;28;90119;-71
2023/01/20 00:38:17;;;;;;;7.13;6.43;;;22.10;72.80;;;;;;6230768;28;89311;-73
2023/01/20 00:41:21;;;;;;;7.03;6.32;;;22.10;72.70;;;;;;6228568;28;89041;-71
2023/01/20 00:44:23;;;;;;;7.10;6.40;;;22.00;72.70;;;;;;6232391;28;89142;-72
2023/01/20 00:47:25;;;;;;;7.07;6.38;;;22.00;72.70;;;;;;6229647;28;88954;-72
2023/01/20 00:50:27;;;;;;;6.63;5.93;;;22.00;72.70;;;;;;6208208;28;89063;-72
2023/01/20 00:53:29;;;;;;;6.57;5.97;;;22.00;72.70;;;;;;6214924;28;88976;-72
2023/01/20 00:56:32;;;;;;;6.30;5.70;;;22.00;72.80;;;;;;6231571;28;88337;-72
2023/01/20 00:59:34;;;;;;;6.57;5.88;;;22.00;72.80;;;;;;6231646;28;89225;-73
2023/01/20 01:02:38;;;;;;;6.57;5.97;;;22.00;73.70;;;;;;6227506;28;88044;-72
2023/01/20 01:05:40;;;;;;;6.40;5.80;;;22.00;72.80;;;;;;6217275;28;90014;-72
2023/01/20 01:08:43;;;;;;;6.25;5.65;;;22.00;72.70;;;;;;6232323;28;89093;-73
2023/01/20 01:11:46;;;;;;;6.90;6.30;;;22.00;72.80;;;;;;6221129;28;89140;-72
2023/01/20 01:14:48;;;;;;;6.30;5.70;;;21.90;72.70;;;;;;6230662;28;87963;-72
2023/01/20 01:17:51;;;;;;;6.22;5.63;;;21.90;72.70;;;;;;6229787;28;89287;-73
2023/01/20 01:20:53;;;;;;;6.50;5.90;;;21.90;72.70;;;;;;6230247;28;88166;-72
2023/01/20 01:23:55;;;;;;;6.07;5.47;;;21.90;72.80;;;;;;6231128;28;89060;-73
2023/01/20 01:26:59;;;;;;;6.22;5.68;;;21.90;72.70;;;;;;6228601;28;88357;-71
2023/01/20 01:30:01;;;;;;;5.85;5.35;;;21.90;72.80;;;;;;6226219;28;89057;-73
2023/01/20 01:33:03;;;;;;;6.00;5.50;;;21.90;72.80;;;;;;6211436;28;89037;-72
2023/01/20 01:36:07;;;;;;;6.30;5.70;;;21.80;72.70;;;;;;6222073;28;90165;-72
2023/01/20 01:39:09;;;;;;;6.45;5.85;;;21.90;72.80;;;;;;6230292;28;89748;-73
2023/01/20 01:42:13;;;;;;;5.60;5.10;;;21.90;72.80;;;;;;6219388;28;89207;-73
2023/01/20 01:45:22;;;;;;;6.00;5.40;;;21.80;72.80;;;;;;6227181;28;89829;-71
2023/01/20 01:48:28;;;;;;;6.20;5.60;;;21.80;72.70;;;;;;6219108;28;89108;-72
2023/01/20 01:51:35;;;;;;;5.53;5.03;;;21.80;72.70;;;;;;6225132;28;89156;-72
2023/01/20 01:54:41;;;;;;;5.25;4.75;;;21.80;72.70;;;;;;6223479;28;89433;-73
2023/01/20 01:57:45;;;;;;;5.68;5.07;;;21.80;72.70;;;;;;6226820;28;88341;-72
2023/01/20 02:00:48;;;;;;;6.10;5.50;;;21.80;72.80;;;;;;6220674;28;89132;-73
2023/01/20 02:03:56;;;;;;;5.70;5.15;;;21.80;72.80;;;;;;6223619;28;89129;-72
2023/01/20 02:07:02;;;;;;;6.38;5.53;;;21.80;72.80;;;;;;6227869;28;90005;-73
2023/01/20 02:10:05;;;;;;;5.07;4.57;;;21.80;72.80;;;;;;6216891;28;89173;-72
2023/01/20 02:13:08;;;;;;;5.70;5.20;;;21.70;72.90;;;;;;6224676;28;88000;-73
2023/01/20 02:16:17;;;;;;;5.05;4.65;;;21.80;72.80;;;;;;6219656;28;89096;-72
2023/01/20 02:19:58;;;;;;;5.20;4.70;;;21.70;72.80;;;;;;6217819;28;89048;-72
2023/01/20 02:23:09;;;;;;;5.18;4.68;;;21.70;72.80;;;;;;6207554;28;89415;-73
2023/01/20 02:26:38;;;;;;;5.57;5.07;;;21.70;72.80;;;;;;6209785;28;89077;-73
2023/01/20 02:30:18;;;;;;;5.28;4.68;;;21.70;72.80;;;;;;6228185;28;88526;-72
2023/01/20 02:33:28;;;;;;;5.07;4.57;;;21.70;72.80;;;;;;6225673;28;89156;-73
2023/01/20 02:36:39;;;;;;;4.68;4.28;;;21.70;72.90;;;;;;6222965;28;89171;-72
2023/01/20 02:39:50;;;;;;;5.38;4.88;;;21.60;72.80;;;;;;6226296;28;90025;-72
2023/01/20 02:42:59;;;;;;;5.07;4.53;;;21.70;72.80;;;;;;6230539;28;88664;-72
2023/01/20 02:46:07;;;;;;;5.20;4.70;;;21.60;72.80;;;;;;6222041;28;89091;-72
2023/01/20 02:49:16;;;;;;;4.55;4.15;;;21.60;72.80;;;;;;6218772;28;89142;-72
2023/01/20 02:52:22;;;;;;;5.00;4.50;;;21.60;72.90;;;;;;6206072;28;89039;-71
2023/01/20 02:55:29;;;;;;;5.05;4.55;;;21.60;72.80;;;;;;6214617;28;88958;-72
2023/01/20 02:58:37;;;;;;;4.70;4.30;;;21.60;72.80;;;;;;6204934;28;89026;-72
2023/01/20 03:01:43;;;;;;;4.55;4.15;;;21.60;72.80;;;;;;6218560;28;87293;-72
2023/01/20 03:04:51;;;;;;;4.72;4.32;;;21.60;72.80;;;;;;6226890;28;89149;-72
2023/01/20 03:07:55;;;;;;;4.85;4.40;;;21.60;72.80;;;;;;6221030;28;89124;-72
2023/01/20 03:11:03;;;;;;;4.50;4.10;;;21.60;72.80;;;;;;6218990;28;89912;-72
2023/01/20 03:14:08;;;;;;;4.30;3.90;;;21.60;72.90;;;;;;6211479;28;89338;-72
2023/01/20 03:17:10;;;;;;;4.65;4.25;;;21.60;72.90;;;;;;6225948;28;89186;-72
2023/01/20 03:20:14;;;;;;;4.78;4.38;;;21.50;72.80;;;;;;6223346;28;89096;-73
2023/01/20 03:23:16;;;;;;;4.15;3.78;;;21.50;72.80;;;;;;6229149;28;89148;-71
2023/01/20 03:26:21;;;;;;;4.38;3.97;;;21.60;73.00;;;;;;6222492;28;88956;-72
2023/01/20 03:29:23;;;;;;;4.85;4.40;;;21.60;73.00;;;;;;6223073;28;89078;-72
2023/01/20 03:32:27;;;;;;;4.47;4.05;;;21.50;72.90;;;;;;6228233;28;89957;-72
2023/01/20 03:35:32;;;;;;;4.15;3.75;;;21.50;72.90;;;;;;6226184;28;87932;-72
2023/01/20 03:38:34;;;;;;;4.30;3.90;;;21.50;72.90;;;;;;6226559;28;89285;-73
2023/01/20 03:41:43;;;;;;;4.30;3.90;;;21.50;72.80;;;;;;6229122;28;90135;-72
2023/01/20 03:45:05;;;;;;;4.38;3.85;;;21.50;72.90;;;;;;6222973;28;89040;-72
2023/01/20 03:48:11;;;;;;;4.70;4.22;;;21.50;72.90;;;;;;6223486;28;89078;-73
2023/01/20 03:51:23;;;;;;;3.80;3.42;;;21.50;72.90;;;;;;6216452;28;89089;-73
2023/01/20 03:54:33;;;;;;;4.18;3.78;;;21.50;72.90;;;;;;6217204;28;89313;-72
2023/01/20 03:57:41;;;;;;;4.60;4.20;;;21.40;72.80;;;;;;6215382;28;89131;-72
2023/01/20 04:00:46;;;;;;;4.65;4.10;;;21.40;72.90;;;;;;6215820;28;89113;-71
2023/01/20 04:03:50;;;;;;;4.53;4.13;;;21.50;73.00;;;;;;6227076;28;88371;-72
2023/01/20 04:06:54;;;;;;;4.68;4.18;;;21.40;72.90;;;;;;6219253;28;89092;-72
2023/01/20 04:10:01;;;;;;;4.10;3.70;;;21.40;72.90;;;;;;6219886;28;89314;-72
2023/01/20 04:13:03;;;;;;;4.10;3.70;;;21.40;72.90;;;;;;6219168;28;90062;-73
2023/01/20 04:16:11;;;;;;;4.20;3.80;;;21.40;72.90;;;;;;6231246;28;89462;-72
2023/01/20 04:19:13;;;;;;;4.30;3.90;;;21.50;72.90;;;;;;6219630;28;89154;-72
2023/01/20 04:22:19;;;;;;;4.22;3.83;;;21.40;72.70;;;;;;6231683;28;88978;-71
2023/01/20 04:25:25;;;;;;;3.80;3.50;;;21.40;72.70;;;;;;6216587;28;89452;-73
2023/01/20 04:28:27;;;;;;;4.28;3.72;;;21.40;72.70;;;;;;6207688;28;89109;-72
2023/01/20 04:31:29;;;;;;;4.20;3.80;;;21.50;72.70;;;;;;6221212;28;88996;-73
2023/01/20 04:34:31;;;;;;;3.95;3.55;;;21.40;72.70;;;;;;6221291;28;88373;-72
2023/01/20 04:37:34;;;;;;;3.72;3.42;;;21.40;72.70;;;;;;6216977;28;89017;-71
2023/01/20 04:40:36;;;;;;;3.80;3.50;;;21.50;72.70;;;;;;6230275;28;87968;-71
2023/01/20 04:43:38;;;;;;;3.55;3.25;;;21.50;72.60;;;;;;6221787;28;89926;-72
2023/01/20 04:46:40;;;;;;;3.50;3.20;;;21.50;72.50;;;;;;6227951;28;89007;-73
2023/01/20 04:49:43;;;;;;;3.65;3.35;;;21.50;72.50;;;;;;6219070;28;90180;-73
2023/01/20 04:52:46;;;;;;;3.63;3.33;;;21.50;72.40;;;;;;6231051;28;89102;-73
2023/01/20 04:55:48;;;;;;;3.50;3.20;;;21.60;72.50;;;;;;6229952;28;89047;-72
2023/01/20 04:58:50;;;;;;;3.60;3.30;;;21.60;72.30;;;;;;6231448;28;89142;-73
2023/01/20 05:01:52;;;;;;;3.80;3.40;;;21.60;72.30;;;;;;6221038;28;89081;-73
2023/01/20 05:04:54;;;;;;;3.42;3.13;;;21.60;72.30;;;;;;6219403;28;88247;-70
2023/01/20 05:07:58;;;;;;;3.22;2.92;;;21.60;72.20;;;;;;6210067;28;89150;-73
2023/01/20 05:11:00;;;;;;;3.90;3.50;;;21.60;72.30;;;;;;6215257;28;88880;-73
2023/01/20 05:14:02;;;;;;;3.92;3.63;;;21.60;72.20;;;;;;6224257;28;89992;-73
2023/01/20 05:17:04;;;;;;;4.47;4.07;;;21.70;72.20;;;;;;6212380;28;89114;-73
2023/01/20 05:20:07;;;;;;;4.40;4.00;;;21.70;72.20;;;;;;6232173;28;88791;-73
2023/01/20 05:23:10;;;;;;;4.50;4.10;;;21.70;72.20;;;;;;6219577;28;89128;-71
2023/01/20 05:26:12;;;;;;;5.10;4.60;;;21.80;72.20;;;;;;6221132;28;89381;-73
2023/01/20 05:29:14;;;;;;;4.72;4.30;;;21.80;72.20;;;;;;6220240;28;89093;-72
2023/01/20 05:32:16;;;;;;;4.70;4.30;;;21.80;72.20;;;;;;6220259;28;89126;-73
2023/01/20 05:35:19;;;;;;;5.03;4.43;;;21.80;72.10;;;;;;6225448;28;88606;-72
2023/01/20 05:38:22;;;;;;;5.65;4.63;;;21.80;72.00;;;;;;6213239;28;88250;-73
2023/01/20 05:41:24;;;;;;;5.32;4.60;;;21.80;72.00;;;;;;6226396;28;88039;-73
2023/01/20 05:44:26;;;;;;;5.50;5.00;;;21.90;72.00;;;;;;6222605;28;90273;-72
2023/01/20 05:47:29;;;;;;;5.95;5.35;;;21.90;72.00;;;;;;6227747;28;89076;-72
2023/01/20 05:50:31;;;;;;;5.70;5.07;;;21.90;72.00;;;;;;6219687;28;89161;-72
2023/01/20 05:53:34;;;;;;;5.70;5.20;;;21.90;72.00;;;;;;6218886;28;89040;-72
2023/01/20 05:56:36;;;;;;;5.63;5.13;;;21.90;72.00;;;;;;6230699;28;89415;-72
2023/01/20 05:59:38;;;;;;;5.60;5.03;;;21.90;72.00;;;;;;6229798;28;89012;-73
2023/01/20 06:02:40;;;;;;;6.20;5.60;;;21.90;72.00;;;;;;6222853;28;90357;-73
2023/01/20 06:05:42;;;;;;;5.85;5.25;;;21.90;72.00;;;;;;6219596;28;88278;-71
2023/01/20 06:08:48;;;;;;;6.18;5.57;;;21.90;72.00;;;;;;6211525;28;89078;-73
2023/01/20 06:11:51;;;;;;;6.35;5.55;;;22.00;72.00;;;;;;6216519;28;89067;-73
2023/01/20 06:14:53;;;;;;;6.13;5.53;;;22.00;72.00;;;;;;6224987;28;90250;-73
2023/01/20 06:17:55;;;;;;;6.80;6.10;;;22.00;72.00;;;;;;6225652;28;89124;-73
2023/01/20 06:20:58;;;;;;;6.55;5.95;;;22.00;71.90;;;;;;6223897;28;89060;-73
2023/01/20 06:24:01;;;;;;;6.30;5.70;;;22.00;71.90;;;;;;6224134;28;89005;-73
2023/01/20 06:27:03;;;;;;;6.22;5.60;;;22.00;71.90;;;;;;6217362;28;89050;-72
2023/01/20 06:30:06;;;;;;;6.50;5.90;;;22.00;71.80;;;;;;6230587;28;89462;-73
2023/01/20 06:33:09;;;;;;;6.82;6.13;;;22.10;71.90;;;;;;6229804;28;89036;-73
2023/01/20 06:36:12;;;;;;;6.72;6.03;;;22.10;71.80;;;;;;6219881;28;88405;-72
2023/01/20 06:39:16;;;;;;;6.63;5.90;;;22.10;71.80;;;;;;6229413;28;89084;-73
2023/01/20 06:42:18;;;;;;;6.60;5.68;;;22.10;71.90;;;;;;6218886;28;87990;-73
2023/01/20 06:45:20;;;;;;;6.80;6.10;;;22.10;71.80;;;;;;6226782;28;89990;-71
2023/01/20 06:48:22;;;;;;;6.40;5.80;;;22.10;71.80;;;;;;6220003;28;89501;-71
2023/01/20 06:51:24;;;;;;;6.40;5.80;;;22.10;71.80;;;;;;6210540;28;89362;-73
2023/01/20 06:54:27;;;;;;;7.18;6.22;;;22.10;71.80;;;;;;6218084;28;89326;-73
2023/01/20 06:57:29;;;;;;;6.53;5.93;;;22.10;71.80;;;;;;6218122;28;89390;-72
2023/01/20 07:00:31;;;;;;;6.28;5.68;;;22.10;71.80;;;;;;6232402;28;89286;-73
2023/01/20 07:03:33;;;;;;;6.72;5.80;;;22.20;71.80;;;;;;6235053;28;88809;-72
2023/01/20 07:06:37;;;;;;;6.30;5.70;;;22.10;71.80;;;;;;6223942;28;88416;-73
2023/01/20 07:09:41;;;;;;;6.35;5.75;;;22.10;71.70;;;;;;6220141;28;89332;-73
2023/01/20 07:12:43;;;;;;;6.13;5.28;;;22.10;71.70;;;;;;6232316;28;89358;-73
2023/01/20 07:15:45;;;;;;;6.65;5.97;;;22.20;71.80;;;;;;6221410;28;89958;-72
2023/01/20 07:18:49;;;;;;;6.10;5.50;;;22.20;71.80;;;;;;6220522;28;88793;-72
2023/01/20 07:21:51;;;;;;;6.22;5.63;;;22.20;71.80;;;;;;6233793;28;89022;-72
2023/01/20 07:24:54;;;;;;;5.85;5.25;;;22.20;71.70;;;;;;6234876;28;89057;-73
2023/01/20 07:27:56;;;;;;;6.50;5.72;;;22.20;71.70;;;;;;6233069;28;89111;-73
2023/01/20 07:31:03;;;;;;;6.05;5.45;;;22.20;71.80;;;;;;6219758;28;89088;-73
2023/01/20 07:34:05;;;;;;;6.30;5.70;;;22.20;71.70;;;;;;6212994;28;89186;-73
2023/01/20 07:37:07;;;;;;;6.25;5.65;;;22.20;71.70;;;;;;6229223;28;88868;-72
2023/01/20 07:40:12;;;;;;;6.43;5.68;;;22.20;71.70;;;;;;6233953;28;89044;-73
2023/01/20 07:43:14;;;;;;;6.07;5.47;;;22.20;71.60;;;;;;6233118;28;89033;-72
2023/01/20 07:46:17;;;;;;;5.50;5.00;;;22.20;71.60;;;;;;6220216;28;90057;-72
2023/01/20 07:49:19;;;;;;;6.78;5.45;;;22.20;71.60;;;;;;6230682;28;89076;-72
2023/01/20 07:52:21;;;;;;;6.03;5.43;;;22.20;71.60;;;;;;6230174;28;89079;-73
2023/01/20 07:55:24;;;;;;;6.10;5.50;;;22.30;71.60;;;;;;6223172;28;89542;-72
2023/01/20 07:58:27;;;;;;;6.13;5.53;;;22.20;71.60;;;;;;6232121;28;89172;-73
2023/01/20 08:01:30;;;;;;;5.88;5.30;;;22.20;71.60;;;;;;6231255;28;89438;-73
2023/01/20 08:04:33;;;;;;;5.80;5.25;;;22.20;71.60;;;;;;6225560;28;88043;-73
2023/01/20 08:07:35;;;;;;;5.72;5.13;;;22.30;71.60;;;;;;6218815;28;87257;-73
2023/01/20 08:10:39;;;;;;;5.82;5.10;;;22.30;71.70;;;;;;6217290;28;89392;-73
2023/01/20 08:13:41;;;;;;;5.45;4.95;;;22.30;71.70;;;;;;6215074;28;89096;-73
2023/01/20 08:16:43;;;;;;;6.20;5.60;;;22.30;71.60;;;;;;6228941;28;90066;-72
2023/01/20 08:19:45;;;;;;;5.80;5.30;;;22.30;71.60;;;;;;6222125;28;89112;-73
2023/01/20 08:22:47;;;;;;;5.43;4.93;;;22.30;71.60;;;;;;6211602;28;89106;-73
2023/01/20 08:25:58;;;;;;;5.68;5.10;;;22.30;71.60;;;;;;6222407;28;89171;-72
2023/01/20 08:29:06;;;;;;;5.45;4.95;;;22.30;71.60;;;;;;6226241;28;89130;-72
2023/01/20 08:32:08;;;;;;;5.35;4.85;;;22.30;71.60;;;;;;6222472;28;88999;-73
2023/01/20 08:35:10;;;;;;;5.32;4.82;;;22.40;72.50;;;;;;6220203;28;89090;-73
2023/01/20 08:38:12;;;;;;;5.32;4.82;;;22.30;71.60;;;;;;6213806;28;88439;-72
2023/01/20 08:41:18;;;;;;;5.13;4.53;;;22.30;71.60;;;;;;6225879;28;87877;-73
2023/01/20 08:44:20;;;;;;;5.00;4.53;;;22.30;71.60;;;;;;6226247;28;89322;-72
2023/01/20 08:47:22;;;;;;;5.28;4.75;;;22.40;71.60;;;;;;6231716;28;89677;-73
2023/01/20 08:50:24;;;;;;;5.22;4.72;;;22.30;71.50;;;;;;6230142;28;88033;-73
2023/01/20 08:53:26;;;;;;;4.85;4.35;;;22.40;71.50;;;;;;6222613;28;89147;-73
2023/01/20 08:56:30;;;;;;;4.90;4.50;;;22.40;71.60;;;;;;6232696;28;89535;-73
2023/01/20 08:59:33;;;;;;;4.90;4.40;;;22.40;71.50;;;;;;6225221;28;88781;-73
2023/01/20 09:02:37;;;;;;;4.97;4.53;;;22.40;71.60;;;;;;6232750;28;90256;-71
2023/01/20 09:05:39;;;;;;;5.20;4.70;;;22.40;71.50;;;;;;6229022;28;89114;-71
2023/01/20 09:08:41;;;;;;;5.47;4.70;;;22.40;71.50;;;;;;6218821;28;88518;-72
2023/01/20 09:11:49;;;;;;;4.90;4.40;;;22.30;71.50;;;;;;6221329;28;89057;-72
2023/01/20 09:14:51;;;;;;;4.75;4.35;;;22.30;71.50;;;;;;6228052;28;89121;-71
2023/01/20 09:17:53;;;;;;;5.13;4.63;;;22.40;71.60;;;;;;6228479;28;90219;-72
2023/01/20 09:20:57;;;;;;;5.22;4.72;;;22.40;71.50;;;;;;6231588;28;89160;-71
2023/01/20 09:24:00;;;;;;;5.03;4.50;;;22.40;71.60;;;;;;6230115;28;89173;-72
2023/01/20 09:27:03;;;;;;;4.75;4.25;;;22.30;71.50;;;;;;6221615;28;88919;-71
2023/01/20 09:30:06;;;;;;;5.03;4.53;;;22.30;71.50;;;;;;6214471;28;87995;-71
2023/01/20 09:33:10;;;;;;;4.55;4.15;;;22.30;72.50;;;;;;6231440;28;89467;-72
2023/01/20 09:36:12;;;;;;;4.40;4.00;;;22.30;71.60;;;;;;6229660;28;89052;-71
2023/01/20 09:46:14;;;;;;;4.72;4.13;;;22.30;72.60;;;;;;6223589;28;87339;-74
2023/01/20 09:53:02;;;;;;;4.35;3.90;;;22.30;71.80;;;;;;6212037;28;87160;-74
2023/01/20 09:56:09;;;;;;;4.40;3.95;;;22.30;71.80;;;;;;6226622;28;89028;-71
2023/01/20 09:59:17;;;;;;;4.40;4.00;;;22.30;71.80;;;;;;6226378;28;88025;-71
2023/01/20 10:02:23;;;;;;;4.43;4.03;;;22.30;71.70;;;;;;6208366;28;87936;-71
2023/01/20 10:05:31;;;;;;;4.40;4.00;;;22.40;71.80;;;;;;6221624;28;89111;-69
2023/01/20 10:08:40;;;;;;;4.07;3.67;;;22.30;71.70;;;;;;6230251;28;89167;-72
2023/01/20 10:11:45;;;;;;;4.65;4.15;;;22.30;71.60;;;;;;6230960;28;89469;-72
2023/01/20 10:14:55;;;;;;;4.30;3.90;;;22.40;71.80;;;;;;6217098;28;89034;-72
2023/01/20 10:18:01;;;;;;;4.40;4.00;;;22.40;71.70;;;;;;6209198;28;87953;-74
2023/01/20 10:21:09;;;;;;;4.38;3.97;;;22.30;71.70;;;;;;6229767;28;90014;-74
2023/01/20 10:24:15;;;;;;;3.92;3.55;;;22.30;71.60;;;;;;6217493;28;88842;-75
2023/01/20 10:27:17;;;;;;;3.58;3.28;;;22.40;71.70;;;;;;6229617;28;89179;-74
2023/01/20 10:30:25;;;;;;;4.18;3.78;;;22.30;71.60;;;;;;6225369;28;87999;-72
2023/01/20 10:33:32;;;;;;;3.60;3.30;;;22.40;71.70;;;;;;6228495;28;89092;-71
2023/01/20 10:36:35;;;;;;;4.03;3.63;;;22.30;71.60;;;;;;6225579;28;89033;-71
2023/01/20 10:39:44;;;;;;;3.83;3.47;;;22.40;71.60;;;;;;6222281;28;88974;-72
2023/01/20 10:42:49;;;;;;;3.90;3.50;;;22.40;71.60;;;;;;6225534;28;88389;-71
2023/01/20 10:46:06;;;;;;;3.95;3.55;;;22.40;71.60;;;;;;6234492;28;89010;-71
2023/01/20 10:49:39;;;;;;;3.97;3.50;;;22.40;71.60;;;;;;6219969;28;87992;-74
2023/01/20 10:53:00;;;;;;;3.50;3.20;;;22.40;71.60;;;;;;6228229;28;90031;-74
2023/01/20 10:56:14;;;;;;;3.55;3.22;;;22.40;71.60;;;;;;6197929;28;89067;-73
2023/01/20 10:59:20;;;;;;;3.50;3.20;;;22.40;71.60;;;;;;6228060;28;89161;-74
2023/01/20 11:02:27;;;;;;;3.95;3.60;;;22.40;71.60;;;;;;6220626;28;89100;-73
2023/01/20 11:05:31;;;;;;;3.58;3.28;;;22.40;71.60;;;;;;6234117;28;89101;-72
2023/01/20 11:08:33;;;;;;;3.80;3.50;;;22.40;71.60;;;;;;6233977;28;89063;-71
2023/01/20 11:11:36;;;;;;;3.50;3.20;;;22.50;71.60;;;;;;6221244;28;89213;-74
2023/01/20 11:14:39;;;;;;;3.50;3.20;;;22.50;71.60;;;;;;6233748;28;88316;-75
2023/01/20 11:17:42;;;;;;;3.22;2.92;;;22.40;71.50;;;;;;6233393;28;91746;-74
2023/01/20 11:20:47;;;;;;;3.13;2.83;;;22.50;71.60;;;;;;6233846;28;89087;-74
2023/01/20 11:23:51;;;;;;;3.50;3.20;;;22.40;71.60;;;;;;6233558;28;88783;-75
2023/01/20 11:27:03;;;;;;;3.30;3.00;;;22.50;71.60;;;;;;6234493;28;89219;-74
2023/01/20 11:30:08;;;;;;;3.40;3.10;;;22.50;71.60;;;;;;6211544;28;89052;-75
2023/01/20 11:33:19;;;;;;;3.33;3.03;;;22.50;71.60;;;;;;6207552;28;89009;-72
2023/01/20 11:36:22;;;;;;;3.33;3.03;;;22.50;71.60;;;;;;6208445;28;87965;-71
2023/01/20 11:39:27;;;;;;;3.28;2.97;;;22.50;71.60;;;;;;6207839;28;88356;-71
2023/01/20 11:42:40;;;;;;;3.35;3.05;;;22.50;71.60;;;;;;6208165;28;89394;-71
2023/01/20 11:45:42;;;;;;;3.13;2.83;;;22.50;71.60;;;;;;6208186;28;88255;-71
2023/01/20 11:48:46;;;;;;;3.25;2.95;;;22.50;71.60;;;;;;6208285;28;88079;-73
2023/01/20 11:51:51;;;;;;;3.28;2.97;;;22.50;71.60;;;;;;6207705;28;89278;-73
2023/01/20 11:55:08;;;;;;;3.20;2.90;;;22.50;71.60;;;;;;6207504;28;89789;-73
2023/01/20 11:58:17;;;;;;;3.25;2.95;;;22.50;71.60;;;;;;6207715;28;89190;-74
2023/01/20 12:01:23;;;;;;;2.80;2.60;;;22.50;71.60;;;;;;6194851;28;89093;-73
2023/01/20 12:05:02;;;;;;;3.20;2.90;;;22.50;71.60;;;;;;6208024;28;89195;-72
2023/01/20 12:08:10;;;;;;;3.05;2.78;;;22.60;71.60;;;;;;6195672;28;87943;-73
2023/01/20 12:11:14;;;;;;;2.85;2.65;;;22.50;71.60;;;;;;6208209;28;89097;-73
2023/01/20 12:14:24;;;;;;;3.00;2.70;;;22.60;71.60;;;;;;6193746;28;89151;-73
2023/01/20 12:17:41;;;;;;;2.70;2.50;;;22.60;71.60;;;;;;6199654;28;88485;-73
2023/01/20 12:20:48;;;;;;;2.92;2.63;;;22.50;71.60;;;;;;6205658;28;89165;-71
2023/01/20 12:23:56;;;;;;;2.60;2.40;;;22.50;71.60;;;;;;6188755;28;89397;-73
2023/01/20 12:27:00;;;;;;;3.08;2.80;;;22.60;71.60;;;;;;6195983;28;90056;-72
2023/01/20 12:30:07;;;;;;;2.90;2.60;;;22.50;71.50;;;;;;6202277;28;89045;-72
2023/01/20 12:33:20;;;;;;;3.20;2.90;;;22.60;71.60;;;;;;6206357;28;89064;-73
2023/01/20 12:37:02;;;;;;;2.70;2.50;;;22.60;71.60;;;;;;6206402;28;89030;-73
2023/01/20 12:40:14;;;;;;;3.70;2.65;;;22.60;71.60;;;;;;6153609;28;88946;-73
2023/01/20 12:43:33;;;;;;;2.50;2.30;;;22.60;71.60;;;;;;6203918;28;89169;-73
2023/01/20 12:46:39;;;;;;;2.50;2.30;;;22.60;71.60;;;;;;6207791;28;89380;-72
2023/01/20 12:49:55;;;;;;;2.80;2.60;;;22.60;71.60;;;;;;6207426;28;88621;-73
2023/01/20 12:53:14;;;;;;;2.67;2.40;;;22.60;71.60;;;;;;6206718;28;89150;-72
2023/01/20 12:56:27;;;;;;;2.75;2.38;;;22.50;71.50;;;;;;6206701;28;89070;-73
2023/01/20 12:59:41;;;;;;;2.50;2.30;;;22.60;71.70;;;;;;6206279;28;90002;-74
2023/01/20 13:03:12;;;;;;;2.55;2.35;;;22.60;71.50;;;;;;6206898;28;89156;-74
2023/01/20 13:06:42;;;;;;;2.50;2.30;;;22.60;71.60;;;;;;6173407;28;89137;-74
2023/01/20 13:09:57;;;;;;;2.40;2.20;;;22.50;71.50;;;;;;6196579;28;89443;-74
2023/01/20 13:13:08;;;;;;;2.50;2.30;;;22.60;71.60;;;;;;6207318;28;89168;-74
2023/01/20 13:16:17;;;;;;;2.42;2.20;;;22.60;71.50;;;;;;6196074;28;89126;-73
2023/01/20 13:19:29;;;;;;;2.50;2.20;;;22.60;71.50;;;;;;6193251;28;89520;-73
2023/01/20 13:22:33;;;;;;;2.20;2.00;;;22.60;71.50;;;;;;6202208;28;88752;-73
2023/01/20 13:25:38;;;;;;;2.97;2.30;;;22.60;71.50;;;;;;6206018;28;88075;-74
2023/01/20 13:28:51;;;;;;;2.22;2.03;;;22.60;72.40;;;;;;6206814;28;87073;-73
2023/01/20 13:31:53;;;;;;;2.50;2.30;;;22.60;71.50;;;;;;6206305;28;90012;-72
2023/01/20 13:34:56;;;;;;;2.33;2.13;;;22.60;71.50;;;;;;6206652;28;89042;-71
2023/01/20 13:38:01;;;;;;;2.45;2.25;;;22.60;71.50;;;;;;6205717;28;89061;-71
2023/01/20 13:41:05;;;;;;;2.45;2.25;;;22.60;71.50;;;;;;6204904;28;89134;-71
2023/01/20 13:44:26;;;;;;;2.45;2.22;;;22.60;72.40;;;;;;6199332;28;87971;-71
2023/01/20 13:48:00;;;;;;;2.72;2.53;;;22.60;71.50;;;;;;6205179;28;88053;-71
2023/01/20 13:51:44;;;;;;;2.40;2.20;;;22.60;71.50;;;;;;6202103;28;89102;-71
2023/01/20 13:54:47;;;;;;;2.28;2.08;;;22.60;71.50;;;;;;6203070;28;88582;-71
2023/01/20 13:57:51;;;;;;;2.60;2.13;;;22.60;71.50;;;;;;6193269;28;88801;-72
2023/01/20 14:00:55;;;;;;;2.28;2.08;;;22.70;71.50;;;;;;6192936;28;89523;-72
2023/01/20 14:04:05;;;;;;;2.25;2.05;;;22.60;71.40;;;;;;6193013;28;90027;-70
2023/01/20 14:07:22;;;;;;;2.00;1.90;;;22.60;71.40;;;;;;6206172;28;89002;-72
2023/01/20 14:10:25;;;;;;;2.55;2.35;;;22.70;71.40;;;;;;6201216;28;87968;-71
2023/01/20 14:13:28;;;;;;;2.33;2.13;;;22.70;71.50;;;;;;6196522;28;87929;-71
2023/01/20 14:16:37;;;;;;;2.70;2.25;;;22.60;71.30;;;;;;6204940;28;89111;-71
2023/01/20 14:19:39;;;;;;;2.30;2.10;;;22.70;71.40;;;;;;6205715;28;89059;-72
2023/01/20 14:22:41;;;;;;;2.33;2.13;;;22.70;71.40;;;;;;6205536;28;89545;-71
2023/01/20 14:25:43;;;;;;;2.20;2.03;;;22.70;71.40;;;;;;6205932;28;88390;-72
2023/01/20 14:28:49;;;;;;;2.20;2.00;;;22.60;71.30;;;;;;6205998;28;89272;-71
2023/01/20 14:31:51;;;;;;;2.22;2.00;;;22.60;71.30;;;;;;6205351;28;89081;-72
2023/01/20 14:34:54;;;;;;;2.45;2.03;;;22.70;71.30;;;;;;6204964;28;90342;-71
2023/01/20 14:37:56;;;;;;;2.28;2.00;;;22.70;71.30;;;;;;6204472;28;89461;-72
2023/01/20 14:40:58;;;;;;;2.47;2.28;;;22.70;71.40;;;;;;6203843;28;89022;-72
2023/01/20 14:44:03;;;;;;;1.77;1.67;;;22.60;71.30;;;;;;6194658;28;89144;-72
2023/01/20 14:47:05;;;;;;;2.25;2.05;;;22.70;71.30;;;;;;6204564;28;88815;-72
2023/01/20 14:50:13;;;;;;;1.95;1.85;;;22.70;71.30;;;;;;6204628;28;89081;-72
2023/01/20 14:53:15;;;;;;;2.20;2.00;;;22.70;71.30;;;;;;6204923;28;89327;-72
2023/01/20 14:56:19;;;;;;;2.10;1.90;;;22.70;71.30;;;;;;6192774;28;87271;-71
2023/01/20 14:59:23;;;;;;;1.98;1.85;;;22.60;71.30;;;;;;6204876;28;89093;-72
2023/01/20 15:02:29;;;;;;;2.20;2.00;;;22.70;71.30;;;;;;6192410;28;89120;-72
2023/01/20 15:05:33;;;;;;;2.22;1.90;;;22.70;71.30;;;;;;6203585;28;89767;-72
2023/01/20 15:08:54;;;;;;;2.20;2.00;;;22.70;71.30;;;;;;6205158;28;88406;-71
2023/01/20 15:12:36;;;;;;;2.20;2.00;;;22.70;71.20;;;;;;6205282;28;89176;-71
2023/01/20 15:15:42;;;;;;;2.20;2.00;;;22.70;71.20;;;;;;6204729;28;87589;-72
2023/01/20 15:18:44;;;;;;;2.22;2.03;;;22.70;71.20;;;;;;6193906;28;89134;-71
2023/01/20 15:21:48;;;;;;;2.13;1.92;;;22.70;71.30;;;;;;6207508;28;89085;-71
2023/01/20 15:24:50;;;;;;;2.00;1.80;;;22.70;71.20;;;;;;6198350;28;89172;-72
2023/01/20 15:27:53;;;;;;;2.10;1.90;;;22.70;71.20;;;;;;6208501;28;88018;-71
2023/01/20 15:30:58;;;;;;;1.98;1.80;;;22.70;71.20;;;;;;6208693;28;89206;-72
2023/01/20 15:34:00;;;;;;;1.85;1.67;;;22.70;71.20;;;;;;6203283;28;88836;-71
2023/01/20 15:37:02;;;;;;;2.13;1.80;;;22.70;71.20;;;;;;6208341;28;90091;-72
2023/01/20 15:40:05;;;;;;;2.10;1.90;;;22.70;71.20;;;;;;6208964;28;89103;-72
2023/01/20 15:43:14;;;;;;;2.00;1.80;;;22.70;71.10;;;;;;6208666;28;89158;-71
2023/01/20 15:46:18;;;;;;;1.92;1.83;;;22.70;71.10;;;;;;6207642;28;89154;-71
2023/01/20 15:49:20;;;;;;;1.92;1.73;;;22.70;71.10;;;;;;6207216;28;89140;-72
2023/01/20 15:52:22;;;;;;;2.45;2.22;;;22.70;71.10;;;;;;6208718;28;88714;-72
2023/01/20 15:55:24;;;;;;;1.90;1.70;;;22.70;71.10;;;;;;6208922;28;89183;-72
2023/01/20 15:58:29;;;;;;;1.88;1.73;;;22.70;71.10;;;;;;6196686;28;88433;-72
2023/01/20 16:01:32;;;;;;;2.00;1.80;;;22.70;71.10;;;;;;6208362;28;89669;-72
2023/01/20 16:04:34;;;;;;;1.88;1.77;;;22.70;71.00;;;;;;6208351;28;88130;-72
2023/01/20 16:07:36;;;;;;;1.90;1.70;;;22.70;71.10;;;;;;6195941;28;89256;-70
2023/01/20 16:10:39;;;;;;;2.00;1.80;;;22.70;71.10;;;;;;6208222;28;89172;-71
2023/01/20 16:13:41;;;;;;;2.10;1.90;;;22.70;71.10;;;;;;6203629;28;89194;-72
2023/01/20 16:16:44;;;;;;;2.20;2.00;;;22.70;71.00;;;;;;6199432;28;89141;-72
2023/01/20 16:19:47;;;;;;;1.70;1.60;;;22.80;71.00;;;;;;6209280;28;89406;-72